Buitrago, Spain
Current Conditions -  °F | °C
As of 8:00 PM on Thursday 23 Oct 2014 (Local Time) from LECV Reporting Station
Few Clouds Few Clouds  
Wind Chill: 19°   Ceiling: Unl
Heat Index: 19°   Visibility: 6mi
Dew Point:   Wind: 15mph
Humidity: 37%   Direction: 30°NNE
Pressure: 30.24"   Gusts: NA
Location:  41°N, 3.63°W
Report Text: LECV 231800Z 03013KT 350V080 9999 FEW060 19/04 Q1024
Loading
Personal Weather Stations






























Interactive Weather Map
Tropical Storm Tracking
New forecast layout! Learn more

10-Day Weather Forecast

Advertisements
Track Severe Weather on mobile